KGEG/GEG METAR and TAF weather

Enter ICAO airport designator
Station Type Date Time Source
KGEG METAR 2018/12/15 22:53 UTC NOAA

KGEG 152253Z 12007KT 10SM FEW030 FEW120 FEW200 03/M03 A3007 RMK AO2 SLP198 T00331033


Station Type Date Time Source
KGEG Decoded METAR 2018/12/15 22:53 UTC NOAA

SPOKANE INTERNATIONAL AIRPORT , WA, United States (KGEG) 47-37N 117-32W 735M
Dec 15, 2018 - 05:53 PM EST / 2018.12.15 2253 UTC
Wind: from the ESE (120 degrees) at 8 MPH (7 KT):0
Visibility: 10 mile(s):0
Sky conditions: mostly clear
Temperature: 37.9 F (3.3 C)
Dew Point: 26.1 F (-3.3 C)
Relative Humidity: 61%
Pressure (altimeter): 30.07 in. Hg (1018 hPa)
ob: KGEG 152253Z 12007KT 10SM FEW030 FEW120 FEW200 03/M03 A3007 RMK AO2 SLP198 T00331033
cycle: 23

Station Type Date Time Source
KGEG TAF 2018/12/15 18:34 UTC NOAA

TAF KGEG 151731Z 1518/1618 20010KT P6SM SCT100 BKN200
FM160000 10009KT P6SM BKN100
FM160900 11010KT P6SM VCSH SCT020 OVC040
FM161100 10008KT 4SM -RA BR OVC020


Example: see airport list